Time;durP1;ratioP1;P1;durP2;ratioP2;P2;SDS_P1;SDS_P2;PMS_P1;PMS_P2;Temp;Humidity;BMP_temperature;BMP_pressure;BME280_temperature;BME280_humidity;BME280_pressure;Samples;Min_cycle;Max_cycle;Signal;HPM_P1;HPM_P2
2022/05/10 00:01:22;;;;;;;22.75;17.83;;;;;;;;;;5014257;28;20056;-69
2022/05/10 00:03:49;;;;;;;20.45;18.20;;;;;;;;;;5014415;28;20045;-70
2022/05/10 00:06:16;;;;;;;22.70;19.00;;;;;;;;;;5013838;28;20050;-70
2022/05/10 00:08:44;;;;;;;22.75;18.40;;;;;;;;;;5013604;28;20045;-72
2022/05/10 00:11:11;;;;;;;21.73;18.58;;;;;;;;;;5013788;28;20052;-71
2022/05/10 00:13:40;;;;;;;22.83;18.83;;;;;;;;;;5013919;28;20483;-70
2022/05/10 00:16:12;;;;;;;24.55;19.13;;;;;;;;;;5013676;28;20049;-70
2022/05/10 00:18:39;;;;;;;23.63;19.38;;;;;;;;;;5013762;28;20074;-69
2022/05/10 00:21:06;;;;;;;24.20;18.60;;;;;;;;;;5013510;28;20045;-69
2022/05/10 00:23:34;;;;;;;25.30;19.77;;;;;;;;;;5012731;28;20466;-70
2022/05/10 00:26:05;;;;;;;23.15;19.40;;;;;;;;;;5014064;28;20410;-69
2022/05/10 00:28:32;;;;;;;27.35;20.35;;;;;;;;;;5013564;28;20054;-70
2022/05/10 00:31:01;;;;;;;25.83;20.33;;;;;;;;;;5013544;28;20435;-70
2022/05/10 00:33:32;;;;;;;24.48;20.10;;;;;;;;;;5013539;28;20049;-70
2022/05/10 00:36:00;;;;;;;27.42;21.08;;;;;;;;;;5013418;28;20503;-68
2022/05/10 00:38:33;;;;;;;26.95;19.50;;;;;;;;;;5013325;28;20053;-71
2022/05/10 00:41:06;;;;;;;22.20;18.15;;;;;;;;;;5013380;28;20456;-70
2022/05/10 00:43:37;;;;;;;23.38;18.58;;;;;;;;;;5013043;28;20112;-70
2022/05/10 00:46:10;;;;;;;21.95;18.63;;;;;;;;;;5012872;28;20049;-70
2022/05/10 00:48:52;;;;;;;26.23;18.77;;;;;;;;;;5013277;28;20052;-69
2022/05/10 00:51:25;;;;;;;21.88;18.80;;;;;;;;;;5013272;28;20064;-69
2022/05/10 00:54:00;;;;;;;20.10;17.45;;;;;;;;;;5013036;28;20057;-70
2022/05/10 00:56:38;;;;;;;23.30;18.48;;;;;;;;;;5012919;28;20052;-70
2022/05/10 00:59:13;;;;;;;24.25;18.15;;;;;;;;;;5012896;28;20403;-70
2022/05/10 01:01:44;;;;;;;23.10;18.77;;;;;;;;;;5013116;28;20530;-70
2022/05/10 01:04:20;;;;;;;22.70;18.85;;;;;;;;;;5012895;28;20050;-71
2022/05/10 01:06:56;;;;;;;21.25;18.52;;;;;;;;;;5012969;28;20145;-70
2022/05/10 01:09:31;;;;;;;22.65;18.85;;;;;;;;;;5013084;28;20129;-69
2022/05/10 01:12:04;;;;;;;26.17;19.27;;;;;;;;;;5012853;28;20104;-70
2022/05/10 01:14:37;;;;;;;27.35;19.77;;;;;;;;;;5012934;28;20056;-70
2022/05/10 01:17:06;;;;;;;24.00;19.95;;;;;;;;;;5013054;28;20418;-70
2022/05/10 01:19:33;;;;;;;24.95;19.83;;;;;;;;;;5012864;28;20062;-69
2022/05/10 01:22:10;;;;;;;24.60;19.17;;;;;;;;;;5012821;28;20057;-69
2022/05/10 01:24:57;;;;;;;23.33;18.92;;;;;;;;;;5012665;28;20041;-68
2022/05/10 01:27:46;;;;;;;24.17;20.08;;;;;;;;;;5012579;28;20050;-69
2022/05/10 01:30:16;;;;;;;23.50;18.63;;;;;;;;;;5012616;28;20435;-69
2022/05/10 01:35:43;;;;;;;25.08;18.40;;;;;;;;;;5012639;28;20049;-68
2022/05/10 01:38:22;;;;;;;23.67;18.10;;;;;;;;;;5012919;28;20092;-68
2022/05/10 01:40:58;;;;;;;23.38;19.65;;;;;;;;;;5012305;28;20056;-69
2022/05/10 01:43:32;;;;;;;22.23;19.23;;;;;;;;;;5012776;28;20045;-69
2022/05/10 01:46:08;;;;;;;27.00;19.52;;;;;;;;;;5016312;28;20042;-69
2022/05/10 01:48:39;;;;;;;21.85;18.20;;;;;;;;;;5032460;28;20056;-69
2022/05/10 01:51:13;;;;;;;25.10;19.00;;;;;;;;;;5032128;28;20053;-70
2022/05/10 01:53:42;;;;;;;27.63;21.30;;;;;;;;;;5031968;28;20046;-69
2022/05/10 01:56:13;;;;;;;25.60;20.13;;;;;;;;;;5031973;28;20049;-70
2022/05/10 01:58:43;;;;;;;27.15;20.50;;;;;;;;;;5032177;28;20398;-70
2022/05/10 02:01:16;;;;;;;26.05;19.60;;;;;;;;;;5032334;28;20054;-69
2022/05/10 02:03:46;;;;;;;24.73;19.35;;;;;;;;;;5032275;28;20049;-70
2022/05/10 02:06:20;;;;;;;25.38;19.90;;;;;;;;;;5032105;28;20545;-69
2022/05/10 02:08:53;;;;;;;24.65;19.25;;;;;;;;;;5032422;28;20422;-69
2022/05/10 02:11:20;;;;;;;24.20;18.40;;;;;;;;;;5032052;28;20045;-70
2022/05/10 02:13:56;;;;;;;23.85;18.17;;;;;;;;;;5032626;28;20137;-70
2022/05/10 02:16:29;;;;;;;23.55;17.60;;;;;;;;;;5032093;28;20137;-70
2022/05/10 02:19:03;;;;;;;24.42;16.80;;;;;;;;;;5032229;28;20072;-70
2022/05/10 02:21:38;;;;;;;20.85;15.43;;;;;;;;;;5032277;28;20049;-70
2022/05/10 02:24:08;;;;;;;23.02;15.88;;;;;;;;;;5031947;28;20494;-70
2022/05/10 02:26:41;;;;;;;21.67;16.33;;;;;;;;;;5031956;28;20080;-69
2022/05/10 02:29:17;;;;;;;18.10;14.10;;;;;;;;;;5031983;28;20536;-70
2022/05/10 02:34:36;;;;;;;18.63;15.30;;;;;;;;;;5031647;28;20421;-71
2022/05/10 02:37:04;;;;;;;16.58;14.52;;;;;;;;;;5032002;28;20387;-72
2022/05/10 02:39:31;;;;;;;21.17;16.00;;;;;;;;;;5031565;28;20088;-69
2022/05/10 02:41:59;;;;;;;20.20;16.30;;;;;;;;;;5031744;28;20131;-69
2022/05/10 02:44:27;;;;;;;18.40;15.45;;;;;;;;;;5031617;28;20521;-70
2022/05/10 02:46:57;;;;;;;18.85;15.40;;;;;;;;;;5031953;28;20064;-69
2022/05/10 02:49:24;;;;;;;17.95;15.23;;;;;;;;;;5035046;28;20056;-69
2022/05/10 02:51:51;;;;;;;20.17;15.40;;;;;;;;;;5034945;28;20041;-69
2022/05/10 02:54:18;;;;;;;17.30;13.80;;;;;;;;;;5035062;28;20419;-69
2022/05/10 02:56:45;;;;;;;17.55;14.00;;;;;;;;;;5034878;28;20046;-69
2022/05/10 02:59:16;;;;;;;17.35;14.75;;;;;;;;;;5035514;28;20063;-68
2022/05/10 03:01:50;;;;;;;18.17;13.88;;;;;;;;;;5035276;28;20537;-69
2022/05/10 03:04:19;;;;;;;19.30;15.88;;;;;;;;;;5034867;28;20045;-69
2022/05/10 03:06:47;;;;;;;20.30;16.25;;;;;;;;;;5035462;28;20049;-69
2022/05/10 03:09:14;;;;;;;26.67;18.23;;;;;;;;;;5035071;28;20045;-71
2022/05/10 03:11:42;;;;;;;25.80;18.77;;;;;;;;;;5034718;28;20132;-69
2022/05/10 03:14:10;;;;;;;26.50;18.10;;;;;;;;;;5035303;28;20045;-68
2022/05/10 03:16:37;;;;;;;25.88;17.15;;;;;;;;;;5034978;28;20053;-68
2022/05/10 03:19:05;;;;;;;23.60;16.92;;;;;;;;;;5035030;28;20041;-69
2022/05/10 03:21:36;;;;;;;24.75;17.73;;;;;;;;;;5034500;28;20140;-69
2022/05/10 03:24:04;;;;;;;25.60;17.60;;;;;;;;;;5034538;28;20514;-69
2022/05/10 03:26:31;;;;;;;20.42;14.75;;;;;;;;;;5034369;28;20049;-69
2022/05/10 03:28:58;;;;;;;18.60;14.13;;;;;;;;;;5034310;28;20510;-69
2022/05/10 03:31:27;;;;;;;18.75;13.68;;;;;;;;;;5034455;28;20410;-71
2022/05/10 03:36:38;;;;;;;22.45;14.85;;;;;;;;;;5011395;28;20572;-70
2022/05/10 03:39:05;;;;;;;25.00;17.67;;;;;;;;;;5034110;28;20053;-69
2022/05/10 03:41:32;;;;;;;23.52;16.67;;;;;;;;;;5034018;28;20041;-70
2022/05/10 03:44:00;;;;;;;18.63;13.27;;;;;;;;;;5034128;28;20057;-68
2022/05/10 03:46:27;;;;;;;16.10;12.23;;;;;;;;;;5033796;28;20049;-69
2022/05/10 03:48:54;;;;;;;14.98;12.57;;;;;;;;;;5033926;28;20046;-70
2022/05/10 03:51:21;;;;;;;16.88;11.45;;;;;;;;;;5033865;28;20056;-71
2022/05/10 03:53:50;;;;;;;16.23;12.25;;;;;;;;;;5033931;28;20041;-69
2022/05/10 03:56:17;;;;;;;14.52;11.70;;;;;;;;;;5033801;28;20049;-68
2022/05/10 03:58:44;;;;;;;15.75;12.70;;;;;;;;;;5033820;28;20430;-70
2022/05/10 04:01:11;;;;;;;15.48;11.95;;;;;;;;;;5033586;28;20045;-70
2022/05/10 04:03:38;;;;;;;16.45;12.57;;;;;;;;;;5033523;28;20046;-69
2022/05/10 04:06:07;;;;;;;16.55;12.40;;;;;;;;;;5033567;28;20056;-70
2022/05/10 04:08:34;;;;;;;13.45;11.20;;;;;;;;;;5033592;28;20112;-69
2022/05/10 04:11:07;;;;;;;14.18;11.90;;;;;;;;;;5033421;28;20054;-69
2022/05/10 04:13:34;;;;;;;15.90;11.65;;;;;;;;;;5033537;28;20049;-69
2022/05/10 04:16:01;;;;;;;23.60;16.17;;;;;;;;;;5033238;28;20061;-70
2022/05/10 04:18:29;;;;;;;20.98;16.10;;;;;;;;;;5033587;28;20410;-69
2022/05/10 04:20:56;;;;;;;21.90;15.90;;;;;;;;;;5033214;28;20407;-69
2022/05/10 04:23:23;;;;;;;20.38;14.82;;;;;;;;;;5033341;28;20041;-70
2022/05/10 04:25:50;;;;;;;21.98;14.70;;;;;;;;;;5033334;28;20041;-68
2022/05/10 04:28:19;;;;;;;19.65;14.23;;;;;;;;;;5033524;28;20042;-70
2022/05/10 04:30:46;;;;;;;22.85;17.15;;;;;;;;;;5033784;28;20061;-69
2022/05/10 04:33:13;;;;;;;21.30;15.20;;;;;;;;;;5033211;28;20045;-69
2022/05/10 04:35:40;;;;;;;25.23;17.02;;;;;;;;;;5033659;28;20053;-68
2022/05/10 04:38:08;;;;;;;22.40;15.90;;;;;;;;;;5033629;28;20410;-69
2022/05/10 04:43:20;;;;;;;23.67;14.98;;;;;;;;;;5033590;28;20068;-69
2022/05/10 04:45:47;;;;;;;24.17;16.52;;;;;;;;;;5030574;28;20076;-70
2022/05/10 04:48:14;;;;;;;23.15;15.70;;;;;;;;;;5013034;28;20046;-68
2022/05/10 04:50:41;;;;;;;24.10;15.95;;;;;;;;;;5013181;28;20448;-68
2022/05/10 04:53:10;;;;;;;23.73;15.88;;;;;;;;;;5013213;28;20491;-67
2022/05/10 04:55:37;;;;;;;23.55;15.63;;;;;;;;;;5012884;28;20129;-68
2022/05/10 04:58:04;;;;;;;22.95;16.02;;;;;;;;;;5013292;28;20049;-67
2022/05/10 05:00:32;;;;;;;21.70;13.73;;;;;;;;;;5013124;28;20108;-68
2022/05/10 05:02:59;;;;;;;19.88;14.75;;;;;;;;;;5012728;28;20052;-69
2022/05/10 05:05:26;;;;;;;19.10;14.00;;;;;;;;;;5012530;28;20046;-67
2022/05/10 05:07:53;;;;;;;16.42;12.38;;;;;;;;;;5012883;28;20050;-68
2022/05/10 05:10:20;;;;;;;17.17;12.30;;;;;;;;;;5012262;28;20046;-69
2022/05/10 05:12:47;;;;;;;16.02;12.60;;;;;;;;;;5012711;28;20060;-68
2022/05/10 05:15:15;;;;;;;17.50;12.43;;;;;;;;;;5013097;28;20506;-68
2022/05/10 05:17:43;;;;;;;19.35;12.88;;;;;;;;;;5012542;28;20053;-68
2022/05/10 05:20:11;;;;;;;16.52;12.18;;;;;;;;;;5012558;28;20494;-68
2022/05/10 05:22:38;;;;;;;17.05;12.18;;;;;;;;;;5013052;28;20045;-67
2022/05/10 05:25:07;;;;;;;15.27;12.02;;;;;;;;;;5012994;28;20451;-68
2022/05/10 05:27:34;;;;;;;15.35;11.38;;;;;;;;;;5012813;28;20068;-67
2022/05/10 05:30:01;;;;;;;13.48;9.65;;;;;;;;;;5013281;28;20049;-68
2022/05/10 05:32:30;;;;;;;14.77;10.88;;;;;;;;;;5013013;28;20053;-68
2022/05/10 05:34:59;;;;;;;15.77;10.60;;;;;;;;;;5013418;28;20079;-68
2022/05/10 05:37:37;;;;;;;18.40;11.20;;;;;;;;;;5013051;28;20075;-68
2022/05/10 05:40:07;;;;;;;14.77;11.50;;;;;;;;;;5012691;28;20573;-68
2022/05/10 05:42:35;;;;;;;16.73;11.07;;;;;;;;;;5012209;28;20050;-68
2022/05/10 05:45:03;;;;;;;17.33;13.02;;;;;;;;;;5022847;22;20060;-67
2022/05/10 05:47:33;;;;;;;14.48;10.75;;;;;;;;;;5012661;28;20054;-68
2022/05/10 05:50:01;;;;;;;18.08;12.25;;;;;;;;;;5012610;28;20435;-67
2022/05/10 05:52:28;;;;;;;15.95;11.90;;;;;;;;;;5012531;28;20148;-68
2022/05/10 05:54:55;;;;;;;18.33;12.70;;;;;;;;;;5012329;28;20143;-67
2022/05/10 05:57:23;;;;;;;13.32;9.90;;;;;;;;;;5011945;28;20500;-67
2022/05/10 05:59:53;;;;;;;16.08;11.73;;;;;;;;;;5012098;28;20050;-67
2022/05/10 06:02:22;;;;;;;16.25;10.25;;;;;;;;;;5012108;28;20061;-67
2022/05/10 06:04:49;;;;;;;20.88;13.35;;;;;;;;;;5011795;28;20104;-67
2022/05/10 06:07:17;;;;;;;15.07;10.60;;;;;;;;;;5012052;28;20148;-67
2022/05/10 06:09:46;;;;;;;13.32;9.70;;;;;;;;;;5011896;28;20054;-67
2022/05/10 06:12:15;;;;;;;13.85;9.88;;;;;;;;;;5012013;28;20085;-67
2022/05/10 06:14:42;;;;;;;14.88;9.75;;;;;;;;;;5011846;28;20136;-67
2022/05/10 06:17:10;;;;;;;13.43;9.95;;;;;;;;;;5012110;28;20057;-66
2022/05/10 06:19:39;;;;;;;14.20;10.15;;;;;;;;;;5012037;28;20487;-67
2022/05/10 06:22:08;;;;;;;14.50;10.20;;;;;;;;;;5013062;28;20046;-68
2022/05/10 06:24:36;;;;;;;14.48;8.82;;;;;;;;;;5015449;28;20232;-67
2022/05/10 06:27:05;;;;;;;12.85;9.15;;;;;;;;;;5016178;28;20053;-68
2022/05/10 06:29:32;;;;;;;14.38;9.77;;;;;;;;;;5015610;28;20058;-67
2022/05/10 06:31:59;;;;;;;12.98;9.77;;;;;;;;;;5015678;28;20046;-67
2022/05/10 06:34:26;;;;;;;14.40;10.40;;;;;;;;;;5015558;28;20049;-67
2022/05/10 06:36:53;;;;;;;19.27;14.05;;;;;;;;;;5015258;28;20049;-67
2022/05/10 06:39:19;;;;;;;15.38;11.05;;;;;;;;;;5015418;28;20050;-67
2022/05/10 06:41:48;;;;;;;13.25;10.15;;;;;;;;;;5015647;28;20514;-67
2022/05/10 06:44:15;;;;;;;14.48;10.48;;;;;;;;;;5015286;28;20062;-66
2022/05/10 06:46:42;;;;;;;14.68;9.95;;;;;;;;;;5005479;28;20053;-67
2022/05/10 06:49:09;;;;;;;13.23;9.85;;;;;;;;;;4995629;28;20050;-67
2022/05/10 06:51:40;;;;;;;15.88;10.15;;;;;;;;;;4995328;28;20061;-67
2022/05/10 06:54:07;;;;;;;13.50;10.60;;;;;;;;;;4995613;28;20068;-67
2022/05/10 06:56:34;;;;;;;15.30;10.50;;;;;;;;;;4995496;28;20054;-67
2022/05/10 06:59:02;;;;;;;15.23;12.02;;;;;;;;;;4995602;28;20056;-67
2022/05/10 07:01:29;;;;;;;17.45;11.05;;;;;;;;;;4995587;28;20050;-68
2022/05/10 07:03:56;;;;;;;14.10;9.75;;;;;;;;;;4995323;28;20054;-67
2022/05/10 07:06:24;;;;;;;15.13;10.15;;;;;;;;;;4995014;28;20054;-67
2022/05/10 07:08:51;;;;;;;13.90;10.63;;;;;;;;;;4995555;28;20094;-65
2022/05/10 07:11:18;;;;;;;14.80;11.13;;;;;;;;;;4995221;28;20057;-67
2022/05/10 07:13:45;;;;;;;13.60;11.18;;;;;;;;;;4995059;28;20066;-67
2022/05/10 07:16:13;;;;;;;15.45;11.13;;;;;;;;;;4995364;28;20336;-67
2022/05/10 07:18:40;;;;;;;14.98;12.15;;;;;;;;;;4994873;28;20496;-67
2022/05/10 07:21:07;;;;;;;16.92;11.20;;;;;;;;;;4995119;28;20050;-66
2022/05/10 07:23:34;;;;;;;15.77;11.60;;;;;;;;;;4995256;28;20050;-67
2022/05/10 07:26:01;;;;;;;16.25;10.55;;;;;;;;;;4994751;28;20094;-67
2022/05/10 07:28:29;;;;;;;17.33;11.55;;;;;;;;;;4995109;28;20046;-67
2022/05/10 07:30:57;;;;;;;16.20;11.43;;;;;;;;;;4994906;28;20062;-67
2022/05/10 07:33:27;;;;;;;13.55;11.65;;;;;;;;;;4994458;28;20054;-67
2022/05/10 07:38:39;;;;;;;14.27;11.07;;;;;;;;;;4994825;28;20065;-67
2022/05/10 07:41:06;;;;;;;17.73;10.55;;;;;;;;;;4994446;28;20054;-67
2022/05/10 07:43:36;;;;;;;17.67;11.50;;;;;;;;;;4994389;28;20415;-67
2022/05/10 07:46:03;;;;;;;15.02;10.25;;;;;;;;;;4998591;28;20045;-67
2022/05/10 07:48:31;;;;;;;15.25;11.40;;;;;;;;;;5013904;28;20605;-68
2022/05/10 07:50:59;;;;;;;15.10;10.30;;;;;;;;;;5013925;28;20068;-67
2022/05/10 07:53:26;;;;;;;13.40;10.90;;;;;;;;;;5013832;28;20057;-67
2022/05/10 07:55:52;;;;;;;15.55;10.77;;;;;;;;;;5014294;28;20057;-67
2022/05/10 07:58:19;;;;;;;18.60;10.85;;;;;;;;;;5013655;28;20065;-67
2022/05/10 08:00:46;;;;;;;12.45;9.82;;;;;;;;;;5013737;28;20053;-68
2022/05/10 08:03:15;;;;;;;11.95;9.85;;;;;;;;;;5014449;28;20054;-68
2022/05/10 08:05:43;;;;;;;14.20;10.27;;;;;;;;;;5013762;28;20050;-69
2022/05/10 08:08:12;;;;;;;13.65;9.57;;;;;;;;;;5014210;28;20478;-67
2022/05/10 08:10:39;;;;;;;13.80;9.20;;;;;;;;;;5013437;28;20104;-68
2022/05/10 08:13:11;;;;;;;12.13;9.13;;;;;;;;;;5013498;28;20057;-66
2022/05/10 08:15:39;;;;;;;10.35;8.63;;;;;;;;;;5013363;28;20042;-67
2022/05/10 08:18:07;;;;;;;12.52;10.68;;;;;;;;;;5013447;28;20058;-68
2022/05/10 08:20:34;;;;;;;12.07;8.90;;;;;;;;;;5013436;28;20472;-68
2022/05/10 08:23:02;;;;;;;12.20;9.70;;;;;;;;;;5013412;28;20072;-67
2022/05/10 08:25:29;;;;;;;11.38;9.27;;;;;;;;;;5012953;28;20525;-68
2022/05/10 08:27:56;;;;;;;13.25;9.95;;;;;;;;;;5013271;28;20054;-67
2022/05/10 08:30:23;;;;;;;12.10;9.75;;;;;;;;;;5013370;28;20050;-68
2022/05/10 08:32:51;;;;;;;13.80;10.32;;;;;;;;;;5013515;28;20046;-68
2022/05/10 08:35:19;;;;;;;12.85;9.52;;;;;;;;;;5013100;28;20073;-69
2022/05/10 08:37:45;;;;;;;14.40;10.77;;;;;;;;;;5013219;28;20054;-68
2022/05/10 08:40:25;;;;;;;12.07;10.30;;;;;;;;;;5013365;28;20487;-67
2022/05/10 08:42:55;;;;;;;14.53;10.83;;;;;;;;;;5013104;28;20104;-67
2022/05/10 08:45:25;;;;;;;18.02;11.00;;;;;;;;;;5012655;28;20057;-68
2022/05/10 08:47:53;;;;;;;16.33;10.70;;;;;;;;;;4993821;28;20050;-67
2022/05/10 08:50:21;;;;;;;14.57;11.30;;;;;;;;;;4993179;28;20350;-67
2022/05/10 08:52:51;;;;;;;14.15;10.35;;;;;;;;;;4993562;28;20507;-68
2022/05/10 08:55:25;;;;;;;14.20;10.40;;;;;;;;;;4993164;28;20150;-67
2022/05/10 08:57:54;;;;;;;15.38;11.40;;;;;;;;;;4993276;28;20054;-68
2022/05/10 09:00:31;;;;;;;15.82;12.68;;;;;;;;;;4993263;28;20495;-67
2022/05/10 09:03:00;;;;;;;13.02;10.60;;;;;;;;;;4993417;28;20081;-66
2022/05/10 09:05:34;;;;;;;12.18;10.18;;;;;;;;;;4992638;28;20054;-67
2022/05/10 09:08:08;;;;;;;16.40;10.52;;;;;;;;;;4993137;28;20046;-67
2022/05/10 09:10:47;;;;;;;16.60;10.48;;;;;;;;;;4993033;28;20495;-67
2022/05/10 09:13:16;;;;;;;12.07;10.18;;;;;;;;;;4993075;28;20050;-68
2022/05/10 09:15:47;;;;;;;15.68;11.25;;;;;;;;;;4992818;28;20495;-68
2022/05/10 09:18:20;;;;;;;13.80;10.93;;;;;;;;;;4992739;28;20056;-68
2022/05/10 09:20:59;;;;;;;13.32;10.90;;;;;;;;;;4992662;28;20058;-67
2022/05/10 09:23:33;;;;;;;13.07;10.30;;;;;;;;;;4992952;28;20050;-67
2022/05/10 09:26:02;;;;;;;14.48;9.98;;;;;;;;;;4992336;28;20554;-67
2022/05/10 09:28:35;;;;;;;11.88;9.77;;;;;;;;;;4992844;28;20056;-67
2022/05/10 09:37:15;;;;;;;19.45;12.73;;;;;;;;;;4992891;28;20108;-67
2022/05/10 09:39:49;;;;;;;10.93;9.65;;;;;;;;;;4992625;28;20488;-66
2022/05/10 09:42:29;;;;;;;11.45;8.75;;;;;;;;;;4992765;28;20518;-66
2022/05/10 09:45:02;;;;;;;12.43;10.15;;;;;;;;;;4992231;28;20293;-67
2022/05/10 09:47:29;;;;;;;17.13;12.05;;;;;;;;;;5009049;28;20057;-67
2022/05/10 09:50:11;;;;;;;10.18;8.45;;;;;;;;;;5012053;28;20056;-67
2022/05/10 09:52:39;;;;;;;11.90;9.30;;;;;;;;;;5012278;28;20061;-67
2022/05/10 09:55:09;;;;;;;11.75;9.00;;;;;;;;;;5011523;28;20049;-67
2022/05/10 09:57:39;;;;;;;13.52;9.00;;;;;;;;;;5016232;28;20682;-67
2022/05/10 10:00:08;;;;;;;;;;;;;;;;;;5016442;28;20049;-67
2022/05/10 10:02:37;;;;;;;13.38;9.93;;;;;;;;;;5016110;28;19943;-66
2022/05/10 10:05:24;;;;;;;13.55;10.50;;;;;;;;;;5015712;28;20499;-67
2022/05/10 10:07:54;;;;;;;11.85;10.35;;;;;;;;;;5016030;28;20099;-67
2022/05/10 10:10:27;;;;;;;11.95;9.68;;;;;;;;;;5015940;28;20411;-66
2022/05/10 10:12:56;;;;;;;13.48;10.63;;;;;;;;;;5016297;28;20049;-68
2022/05/10 10:15:40;;;;;;;12.32;9.07;;;;;;;;;;5015910;28;20045;-67
2022/05/10 10:18:09;;;;;;;14.07;10.18;;;;;;;;;;5016081;28;20146;-66
2022/05/10 10:20:42;;;;;;;11.07;9.93;;;;;;;;;;5015720;28;20477;-67
2022/05/10 10:23:22;;;;;;;13.35;9.85;;;;;;;;;;5015969;28;20459;-67
2022/05/10 10:25:51;;;;;;;10.93;8.60;;;;;;;;;;5015473;28;20054;-69
2022/05/10 10:28:27;;;;;;;10.57;8.52;;;;;;;;;;5016244;28;20062;-67
2022/05/10 10:30:58;;;;;;;10.77;8.55;;;;;;;;;;5015751;28;20057;-67
2022/05/10 10:33:34;;;;;;;13.30;9.75;;;;;;;;;;5015776;28;20396;-67
2022/05/10 10:36:06;;;;;;;11.98;10.23;;;;;;;;;;5015559;28;20068;-67
2022/05/10 10:38:44;;;;;;;11.45;9.23;;;;;;;;;;5015432;28;20141;-67
2022/05/10 10:41:14;;;;;;;10.73;9.38;;;;;;;;;;5015380;28;20076;-67
2022/05/10 10:43:49;;;;;;;11.25;9.07;;;;;;;;;;5015539;28;20046;-68
2022/05/10 10:46:25;;;;;;;12.70;9.43;;;;;;;;;;5008643;28;20046;-67
2022/05/10 10:48:55;;;;;;;11.50;8.80;;;;;;;;;;4995480;28;20054;-68
2022/05/10 10:51:27;;;;;;;10.18;8.70;;;;;;;;;;4995482;28;20112;-67
2022/05/10 10:53:54;;;;;;;12.30;9.57;;;;;;;;;;4995620;28;20058;-68
2022/05/10 10:56:49;;;;;;;11.20;9.35;;;;;;;;;;4995422;28;20060;-67
2022/05/10 10:59:57;;;;;;;10.60;8.90;;;;;;;;;;4988155;28;20076;-67
2022/05/10 11:02:52;;;;;;;11.20;8.90;;;;;;;;;;4995359;28;20053;-68
2022/05/10 11:05:45;;;;;;;10.20;9.20;;;;;;;;;;4992909;28;20420;-68
2022/05/10 11:08:22;;;;;;;12.35;9.68;;;;;;;;;;4988607;28;20145;-68
2022/05/10 11:10:56;;;;;;;11.73;8.63;;;;;;;;;;4995253;28;20073;-67
2022/05/10 11:13:33;;;;;;;10.80;8.70;;;;;;;;;;4995647;28;20249;-68
2022/05/10 11:16:12;;;;;;;11.65;8.60;;;;;;;;;;4994864;28;20060;-68
2022/05/10 11:18:53;;;;;;;11.18;8.30;;;;;;;;;;4995354;28;20065;-67
2022/05/10 11:21:33;;;;;;;10.25;8.23;;;;;;;;;;4995091;28;20050;-68
2022/05/10 11:24:06;;;;;;;10.95;8.93;;;;;;;;;;4995132;28;20055;-67
2022/05/10 11:26:53;;;;;;;10.40;8.52;;;;;;;;;;4994593;28;20056;-67
2022/05/10 11:29:50;;;;;;;12.32;9.13;;;;;;;;;;4994842;28;20486;-67
2022/05/10 11:32:26;;;;;;;10.85;8.50;;;;;;;;;;4993580;28;20136;-67
2022/05/10 11:35:08;;;;;;;12.70;8.73;;;;;;;;;;4995188;28;20077;-67
2022/05/10 11:37:44;;;;;;;10.73;8.40;;;;;;;;;;4995139;28;20105;-67
2022/05/10 11:40:31;;;;;;;11.50;10.05;;;;;;;;;;4994720;28;20076;-67
2022/05/10 11:43:27;;;;;;;13.75;10.65;;;;;;;;;;4994854;28;20150;-67
2022/05/10 11:46:34;;;;;;;10.25;8.07;;;;;;;;;;5026949;22;20048;-79
2022/05/10 11:49:25;;;;;;;12.00;9.38;;;;;;;;;;5019081;28;20054;-78
2022/05/10 11:52:04;;;;;;;10.30;8.27;;;;;;;;;;5014008;28;20072;-79
2022/05/10 11:54:57;;;;;;;11.68;8.55;;;;;;;;;;5021980;28;20225;-79
2022/05/10 11:57:26;;;;;;;11.05;8.48;;;;;;;;;;4984274;28;20461;-78
2022/05/10 11:59:53;;;;;;;10.75;8.38;;;;;;;;;;4996349;28;20060;-77
2022/05/10 12:02:45;;;;;;;9.73;8.73;;;;;;;;;;4995716;28;20100;-78
2022/05/10 12:05:24;;;;;;;8.60;7.10;;;;;;;;;;4996374;28;20046;-80
2022/05/10 12:07:55;;;;;;;9.17;7.37;;;;;;;;;;4995773;28;20521;-80
2022/05/10 12:10:44;;;;;;;8.88;7.10;;;;;;;;;;4999016;28;20047;-79
2022/05/10 12:21:19;;;;;;;8.55;7.38;;;;;;;;;;5000564;28;20050;-80
2022/05/10 12:22:07;;;;;;;9.10;6.97;;;;;;;;;;4999005;28;20049;-79
2022/05/10 12:24:36;;;;;;;8.88;7.10;;;;;;;;;;4998242;28;20509;-79
2022/05/10 12:27:33;;;;;;;10.50;7.30;;;;;;;;;;4997882;28;20501;-80
2022/05/10 12:30:10;;;;;;;7.88;6.65;;;;;;;;;;4997544;28;20123;-79
2022/05/10 12:32:47;;;;;;;9.80;7.15;;;;;;;;;;5001401;28;20057;-81
2022/05/10 12:35:21;;;;;;;8.52;7.15;;;;;;;;;;4996934;28;20057;-79
2022/05/10 12:38:00;;;;;;;7.22;6.00;;;;;;;;;;4998988;28;20075;-82
2022/05/10 12:41:13;;;;;;;7.65;6.20;;;;;;;;;;5000305;28;20051;-82
2022/05/10 12:44:08;;;;;;;8.10;7.10;;;;;;;;;;5000154;28;20072;-81
2022/05/10 12:46:53;;;;;;;10.98;7.28;;;;;;;;;;4988884;28;20046;-82
2022/05/10 12:49:47;;;;;;;8.45;6.53;;;;;;;;;;4979264;28;20047;-81
2022/05/10 12:52:27;;;;;;;7.72;6.57;;;;;;;;;;4975704;28;20055;-80
2022/05/10 12:55:03;;;;;;;9.57;6.93;;;;;;;;;;4978140;28;20146;-81
2022/05/10 12:57:40;;;;;;;8.00;6.88;;;;;;;;;;4979996;28;20051;-80
2022/05/10 13:00:12;;;;;;;7.90;7.10;;;;;;;;;;4981433;28;20062;-81
2022/05/10 13:02:41;;;;;;;9.55;7.15;;;;;;;;;;4977611;28;20127;-80
2022/05/10 13:05:15;;;;;;;8.38;7.10;;;;;;;;;;4976832;28;20075;-82
2022/05/10 13:08:29;;;;;;;8.45;7.53;;;;;;;;;;4978007;28;20183;-80
2022/05/10 13:11:00;;;;;;;10.38;6.90;;;;;;;;;;4914017;29;20415;-79
2022/05/10 13:13:32;;;;;;;8.77;7.18;;;;;;;;;;4916299;29;20158;-79
2022/05/10 13:16:00;;;;;;;7.85;7.00;;;;;;;;;;4951981;28;20046;-79
2022/05/10 13:18:28;;;;;;;12.80;9.32;;;;;;;;;;4977025;28;20058;-79
2022/05/10 13:20:57;;;;;;;11.60;9.40;;;;;;;;;;4976845;28;20042;-79
2022/05/10 13:23:28;;;;;;;8.63;6.93;;;;;;;;;;4977402;28;20070;-79
2022/05/10 13:25:57;;;;;;;8.45;7.00;;;;;;;;;;4978551;28;20121;-80
2022/05/10 13:28:26;;;;;;;8.65;7.20;;;;;;;;;;4978671;28;20054;-81
2022/05/10 13:30:54;;;;;;;10.38;7.45;;;;;;;;;;4980372;28;20066;-80
2022/05/10 13:33:27;;;;;;;11.50;9.63;;;;;;;;;;4981493;28;20114;-81
2022/05/10 13:35:55;;;;;;;7.65;6.20;;;;;;;;;;4982197;28;20061;-80
2022/05/10 13:38:26;;;;;;;7.80;6.22;;;;;;;;;;4980198;28;20050;-80
2022/05/10 13:40:57;;;;;;;7.95;6.40;;;;;;;;;;4977741;28;20106;-81
2022/05/10 13:43:33;;;;;;;9.07;6.55;;;;;;;;;;4976176;28;20134;-80
2022/05/10 13:46:02;;;;;;;11.07;9.15;;;;;;;;;;4979331;28;20046;-79
2022/05/10 13:48:32;;;;;;;9.18;6.32;;;;;;;;;;4994287;28;20137;-79
2022/05/10 13:51:06;;;;;;;8.18;6.03;;;;;;;;;;4994057;28;20054;-78
2022/05/10 13:53:35;;;;;;;12.63;9.70;;;;;;;;;;4994128;28;20571;-79
2022/05/10 13:56:02;;;;;;;10.02;7.60;;;;;;;;;;4995552;28;20181;-80
2022/05/10 13:58:32;;;;;;;7.28;6.00;;;;;;;;;;4994816;28;20112;-79
2022/05/10 14:01:01;;;;;;;8.77;6.15;;;;;;;;;;4997678;28;20050;-80
2022/05/10 14:03:28;;;;;;;14.52;10.07;;;;;;;;;;4995631;28;20485;-82
2022/05/10 14:06:04;;;;;;;12.13;9.68;;;;;;;;;;4995507;28;20042;-79
2022/05/10 14:08:38;;;;;;;10.20;7.05;;;;;;;;;;4994894;28;20046;-79
2022/05/10 14:11:12;;;;;;;7.72;6.93;;;;;;;;;;4995968;28;20496;-80
2022/05/10 14:13:44;;;;;;;10.13;8.20;;;;;;;;;;4996135;28;20061;-81
2022/05/10 14:16:11;;;;;;;7.75;6.03;;;;;;;;;;4997463;28;20042;-79
2022/05/10 14:18:40;;;;;;;8.02;5.68;;;;;;;;;;5002210;28;20077;-80
2022/05/10 14:21:16;;;;;;;7.43;6.05;;;;;;;;;;5000352;28;20413;-79
2022/05/10 14:23:44;;;;;;;7.35;5.75;;;;;;;;;;5000626;28;20054;-79
2022/05/10 14:26:33;;;;;;;6.97;6.20;;;;;;;;;;5006119;28;20061;-79
2022/05/10 14:29:13;;;;;;;7.90;6.20;;;;;;;;;;5001618;28;20051;-80
2022/05/10 14:31:41;;;;;;;6.40;5.70;;;;;;;;;;5006417;28;20050;-81
2022/05/10 14:34:15;;;;;;;7.90;5.95;;;;;;;;;;5001292;28;20054;-80
2022/05/10 14:36:45;;;;;;;6.60;5.82;;;;;;;;;;4998513;28;20053;-79
2022/05/10 14:39:23;;;;;;;7.35;5.80;;;;;;;;;;4996715;28;20131;-79
2022/05/10 14:41:50;;;;;;;6.28;5.68;;;;;;;;;;4995108;28;20050;-81
2022/05/10 14:44:21;;;;;;;6.80;6.10;;;;;;;;;;5002264;28;20050;-79
2022/05/10 14:46:55;;;;;;;8.07;6.50;;;;;;;;;;4991009;28;20051;-80
2022/05/10 14:49:34;;;;;;;6.43;5.53;;;;;;;;;;4979719;28;20054;-80
2022/05/10 14:52:03;;;;;;;7.80;5.97;;;;;;;;;;4982359;28;20050;-81
2022/05/10 14:54:35;;;;;;;6.30;5.43;;;;;;;;;;4980686;28;20074;-81
2022/05/10 14:57:04;;;;;;;8.13;5.32;;;;;;;;;;4981874;28;20191;-81
2022/05/10 14:59:51;;;;;;;8.35;6.00;;;;;;;;;;4982484;28;20133;-81
2022/05/10 15:02:33;;;;;;;5.88;5.28;;;;;;;;;;4982076;28;20086;-81
2022/05/10 15:05:08;;;;;;;10.55;6.28;;;;;;;;;;4978825;28;20054;-80
2022/05/10 15:07:35;;;;;;;7.55;5.93;;;;;;;;;;4981632;28;20101;-83
2022/05/10 15:10:03;;;;;;;8.90;6.50;;;;;;;;;;4983358;28;20070;-80
2022/05/10 15:15:18;;;;;;;8.00;5.95;;;;;;;;;;4987698;28;20118;-80
2022/05/10 15:20:29;;;;;;;7.10;5.75;;;;;;;;;;4983986;28;20058;-80
2022/05/10 15:22:56;;;;;;;7.20;5.47;;;;;;;;;;4984319;28;20055;-79
2022/05/10 15:25:23;;;;;;;7.50;5.40;;;;;;;;;;4981931;28;20054;-79